Terminal Aerodrome Forecast
Issued by NWS Shreveport, LA

Home | Current Version | Previous Version | Text Only | Print | Product List | Glossary On
Versions: 1 2 3 4 5 6 7 8 9 10 11 12 13 14 15 16 17 18 19
000
FTUS44 KSHV 020538
TAFLFK
TAF
KLFK 020538Z 0206/0306 00000KT 5SM BR SCT250
      TEMPO 0210/0214 2SM BR BKN015
     FM021400 14004KT P6SM SCT015
     FM021800 VRB04KT P6SM SCT250=

USA.gov is the U.S. government's official web portal to all federal, state and local government web resources and services.